KJAN/JAN METAR and TAF weather

Enter ICAO airport designator
Station Type Date Time Source
KJAN METAR 2019/08/24 20:54 UTC NOAA

KJAN 242054Z 10006KT 10SM SCT039 SCT046 BKN120 32/22 A2994 RMK AO2 SLP133 T03220217 58019


Station Type Date Time Source
KJAN Decoded METAR 2019/08/24 20:54 UTC NOAA

Station name not available
Aug 24, 2019 - 04:54 PM EDT / 2019.08.24 2054 UTC
Wind: from the E (100 degrees) at 7 MPH (6 KT):0
Visibility: 10 mile(s):0
Sky conditions: mostly cloudy
Temperature: 90.0 F (32.2 C)
Heat index: 96.1 F (35.6 C):1
Dew Point: 71.1 F (21.7 C)
Relative Humidity: 53%
Pressure (altimeter): 29.94 in. Hg (1013 hPa)
Pressure tendency: 0.06 inches (1.9 hPa) lower than three hours ago
ob: KJAN 242054Z 10006KT 10SM SCT039 SCT046 BKN120 32/22 A2994 RMK AO2 SLP133 T03220217 58019
cycle: 21

Station Type Date Time Source
KJAN TAF 2019/08/24 18:54 UTC NOAA

TAF KJAN 241752Z 2418/2518 VRB03KT P6SM VCSH SCT035
FM242100 17005KT P6SM -SHRA VCTS BKN040CB
FM250000 15003KT P6SM -SHRA SCT040 BKN150
FM250500 00000KT P6SM FEW025 SCT040

Example: see airport list